| time (UTC) | temp F | wind direction | speed MPH | gust MPH | rain 1hr in | rain 24hr in | rain mn in | humidity % | barometer mb |
| 20260510224539 | 74 | 92 | 0.0 | 0.0 | 0.00 | 0.00 | 0.00 | 28 | 1005.7 |
| 20260510223036 | 74 | 15 | 0.0 | 0.0 | 0.00 | 0.00 | 0.00 | 29 | 1005.7 |
| 20260510221538 | 73 | 57 | 0.0 | 0.0 | 0.00 | 0.00 | 0.00 | 30 | 1005.6 |
| 20260510220031 | 71 | 49 | 0.0 | 0.0 | 0.00 | 0.00 | 0.00 | 31 | 1005.8 |
| 20260510214527 | 73 | 285 | 0.0 | 0.0 | 0.00 | 0.00 | 0.00 | 29 | 1005.9 |
| 20260510213026 | 72 | 46 | 0.0 | 1.0 | 0.00 | 0.00 | 0.00 | 31 | 1005.9 |
| 20260510211526 | 72 | 66 | 0.0 | 0.0 | 0.00 | 0.00 | 0.00 | 31 | 1005.9 |
| 20260510210025 | 73 | 327 | 0.0 | 0.0 | 0.00 | 0.00 | 0.00 | 29 | 1005.8 |
| 20260510204539 | 73 | 195 | 0.0 | 0.0 | 0.00 | 0.00 | 0.00 | 30 | 1005.7 |
| 20260510203026 | 71 | 290 | 0.0 | 0.0 | 0.00 | 0.00 | 0.00 | 32 | 1005.6 |
| 20260510201521 | 70 | 162 | 0.0 | 0.0 | 0.00 | 0.00 | 0.00 | 30 | 1005.4 |
| 20260510200020 | 72 | 78 | 0.0 | 0.0 | 0.00 | 0.00 | 0.00 | 29 | 1005.1 |
| 20260510194523 | 73 | 207 | 0.0 | 0.0 | 0.00 | 0.00 | 0.00 | 27 | 1005.1 |
| 20260510193020 | 73 | 208 | 0.0 | 0.0 | 0.00 | 0.00 | 0.00 | 28 | 1005.0 |
| 20260510191527 | 71 | 126 | 0.0 | 0.0 | 0.00 | 0.00 | 0.00 | 28 | 1005.2 |
| 20260510190033 | 71 | 63 | 0.0 | 1.0 | 0.00 | 0.00 | 0.00 | 29 | 1005.2 |
| 20260510184523 | 69 | 139 | 0.0 | 0.0 | 0.00 | 0.00 | 0.00 | 31 | 1005.3 |
| 20260510183022 | 68 | 100 | 0.0 | 0.0 | 0.00 | 0.00 | 0.00 | 31 | 1005.5 |
| 20260510181538 | 68 | 75 | 0.0 | 0.0 | 0.00 | 0.00 | 0.00 | 31 | 1005.5 |
| 20260510180028 | 68 | 65 | 0.0 | 1.0 | 0.00 | 0.00 | 0.00 | 32 | 1005.4 |
| 20260510174519 | 70 | 230 | 0.0 | 1.0 | 0.00 | 0.00 | 0.00 | 30 | 1005.5 |
| 20260510173022 | 72 | 33 | 0.0 | 0.0 | 0.00 | 0.00 | 0.00 | 28 | 1005.2 |
| 20260510171515 | 71 | 85 | 0.0 | 0.0 | 0.00 | 0.00 | 0.00 | 22 | 1005.2 |
| 20260510170017 | 71 | 53 | 0.0 | 0.0 | 0.00 | 0.00 | 0.00 | 23 | 1005.0 |
| 20260510164512 | 71 | 41 | 0.0 | 1.0 | 0.00 | 0.00 | 0.00 | 23 | 1005.0 |
| 20260510163017 | 72 | 41 | 0.0 | 0.0 | 0.00 | 0.00 | 0.00 | 24 | 1004.8 |
| 20260510161515 | 70 | 222 | 0.0 | 0.0 | 0.00 | 0.00 | 0.00 | 25 | 1004.9 |
| 20260510160012 | 70 | 211 | 0.0 | 0.0 | 0.00 | 0.00 | 0.00 | 25 | 1004.9 |
| 20260510154512 | 68 | 211 | 0.0 | 0.0 | 0.00 | 0.00 | 0.00 | 26 | 1004.7 |
| 20260510153023 | 67 | 214 | 0.0 | 0.0 | 0.00 | 0.00 | 0.00 | 28 | 1004.8 |
| 20260510151511 | 67 | 213 | 0.0 | 0.0 | 0.00 | 0.00 | 0.00 | 30 | 1004.8 |
| 20260510150014 | 65 | 208 | 0.0 | 0.0 | 0.00 | 0.00 | 0.00 | 31 | 1004.8 |
| 20260510144520 | 62 | 97 | 0.0 | 0.0 | 0.00 | 0.00 | 0.00 | 35 | 1004.6 |
| 20260510143012 | 61 | 97 | 0.0 | 0.0 | 0.00 | 0.00 | 0.00 | 36 | 1004.6 |
| 20260510141513 | 59 | 97 | 0.0 | 0.0 | 0.00 | 0.00 | 0.00 | 37 | 1004.5 |
| 20260510140011 | 57 | 97 | 0.0 | 0.0 | 0.00 | 0.00 | 0.00 | 39 | 1004.5 |
| 20260510134511 | 56 | 97 | 0.0 | 0.0 | 0.00 | 0.00 | 0.00 | 42 | 1004.4 |
| 20260510133015 | 55 | 97 | 0.0 | 0.0 | 0.00 | 0.00 | 0.00 | 46 | 1004.5 |
| 20260510131509 | 54 | 97 | 0.0 | 0.0 | 0.00 | 0.00 | 0.00 | 45 | 1004.2 |
| 20260510130008 | 53 | 97 | 0.0 | 0.0 | 0.00 | 0.00 | 0.00 | 42 | 1004.2 |
| 20260510124506 | 53 | 97 | 0.0 | 0.0 | 0.00 | 0.00 | 0.00 | 40 | 1004.0 |
| 20260510123002 | 54 | 97 | 0.0 | 0.0 | 0.00 | 0.00 | 0.00 | 38 | 1003.8 |
| 20260510121559 | 56 | 97 | 0.0 | 0.0 | 0.00 | 0.00 | 0.00 | 35 | 1003.6 |
| 20260510120056 | 58 | 97 | 0.0 | 0.0 | 0.00 | 0.00 | 0.00 | 32 | 1003.4 |
| 20260510114605 | 60 | 97 | 0.0 | 0.0 | 0.00 | 0.00 | 0.00 | 31 | 1003.5 |
| 20260510113054 | 60 | 97 | 0.0 | 0.0 | 0.00 | 0.00 | 0.00 | 30 | 1003.1 |
| 20260510111554 | 61 | 97 | 0.0 | 0.0 | 0.00 | 0.00 | 0.00 | 29 | 1003.9 |
| 20260510110101 | 62 | 97 | 0.0 | 0.0 | 0.00 | 0.00 | 0.00 | 28 | 1004.5 |
| 20260510104609 | 62 | 331 | 0.0 | 0.0 | 0.00 | 0.00 | 0.00 | 27 | 1004.1 |
| 20260510103054 | 62 | 61 | 0.0 | 0.0 | 0.00 | 0.00 | 0.00 | 26 | 1003.3 |
| 20260510101551 | 61 | 61 | 0.0 | 0.0 | 0.00 | 0.00 | 0.00 | 25 | 1003.2 |
| 20260510100055 | 62 | 283 | 0.0 | 0.0 | 0.00 | 0.00 | 0.00 | 25 | 1002.9 |
| 20260510094549 | 61 | 283 | 0.0 | 0.0 | 0.00 | 0.00 | 0.00 | 24 | 1003.0 |
| 20260510093048 | 59 | 300 | 0.0 | 0.0 | 0.00 | 0.00 | 0.00 | 26 | 1003.1 |
| 20260510091546 | 59 | 294 | 0.0 | 0.0 | 0.00 | 0.00 | 0.00 | 28 | 1003.0 |
| 20260510090046 | 60 | 294 | 0.0 | 0.0 | 0.00 | 0.00 | 0.00 | 28 | 1003.1 |
| 20260510084552 | 59 | 294 | 0.0 | 0.0 | 0.00 | 0.00 | 0.00 | 27 | 1002.9 |
| 20260510083047 | 61 | 294 | 0.0 | 0.0 | 0.00 | 0.00 | 0.00 | 25 | 1002.9 |
| 20260510081538 | 62 | 294 | 0.0 | 0.0 | 0.00 | 0.00 | 0.00 | 24 | 1002.6 |
| 20260510080036 | 62 | 294 | 0.0 | 0.0 | 0.00 | 0.00 | 0.00 | 23 | 1002.4 |
| 20260510074535 | 62 | 294 | 0.0 | 0.0 | 0.00 | 0.00 | 0.00 | 23 | 1002.3 |
| 20260510073038 | 63 | 294 | 0.0 | 0.0 | 0.00 | 0.00 | 0.00 | 22 | 1002.4 |
| 20260510071543 | 63 | 292 | 0.0 | 0.0 | 0.00 | 0.00 | 0.00 | 22 | 1002.3 |
| 20260510070034 | 63 | 292 | 0.0 | 0.0 | 0.00 | 0.00 | 0.00 | 21 | 1002.3 |
| 20260510064530 | 64 | 292 | 0.0 | 0.0 | 0.00 | 0.00 | 0.00 | 21 | 1002.1 |
| 20260510063030 | 63 | 293 | 0.0 | 1.0 | 0.00 | 0.00 | 0.00 | 21 | 1002.0 |
| 20260510061528 | 64 | 321 | 0.0 | 0.0 | 0.00 | 0.00 | 0.00 | 20 | 1001.9 |
| 20260510060030 | 64 | 323 | 0.0 | 0.0 | 0.00 | 0.00 | 0.00 | 19 | 1001.7 |
| 20260510054526 | 65 | 202 | 0.0 | 0.0 | 0.00 | 0.00 | 0.00 | 18 | 1001.5 |
| 20260510053024 | 65 | 137 | 0.0 | 0.0 | 0.00 | 0.00 | 0.00 | 18 | 1001.5 |
| 20260510051528 | 65 | 134 | 0.0 | 0.0 | 0.00 | 0.00 | 0.00 | 17 | 1001.5 |
| 20260510050022 | 66 | 132 | 0.0 | 0.0 | 0.00 | 0.00 | 0.00 | 17 | 1001.6 |
| 20260510044524 | 66 | 284 | 0.0 | 0.0 | 0.00 | 0.00 | 0.00 | 17 | 1001.6 |
| 20260510043019 | 66 | 137 | 0.0 | 0.0 | 0.00 | 0.00 | 0.00 | 16 | 1001.5 |
| 20260510041521 | 66 | 103 | 0.0 | 0.0 | 0.00 | 0.00 | 0.00 | 17 | 1001.5 |
| 20260510040020 | 67 | 103 | 0.0 | 0.0 | 0.00 | 0.00 | 0.00 | 17 | 1001.6 |
| 20260510034517 | 69 | 103 | 0.0 | 0.0 | 0.00 | 0.00 | 0.00 | 18 | 1001.5 |
| 20260510033011 | 70 | 103 | 0.0 | 0.0 | 0.00 | 0.00 | 0.00 | 16 | 1001.2 |
| 20260510031511 | 70 | 102 | 0.0 | 0.0 | 0.00 | 0.00 | 0.00 | 16 | 1001.3 |
| 20260510030010 | 71 | 339 | 0.0 | 0.0 | 0.00 | 0.00 | 0.00 | 16 | 1001.2 |
| 20260510024510 | 71 | 317 | 0.0 | 1.0 | 0.00 | 0.00 | 0.00 | 16 | 1000.9 |
| 20260510023007 | 71 | 309 | 0.0 | 0.0 | 0.00 | 0.00 | 0.00 | 16 | 1000.8 |
| 20260510021504 | 71 | 343 | 0.0 | 0.0 | 0.00 | 0.00 | 0.00 | 16 | 1000.5 |
| 20260510020003 | 72 | 344 | 0.0 | 0.0 | 0.00 | 0.00 | 0.00 | 16 | 1000.4 |
| 20260510014502 | 72 | 282 | 0.0 | 0.0 | 0.00 | 0.00 | 0.00 | 15 | 1000.3 |
| 20260510013109 | 73 | 322 | 0.0 | 0.0 | 0.00 | 0.00 | 0.00 | 14 | 1000.1 |
| 20260510011557 | 73 | 301 | 0.0 | 0.0 | 0.00 | 0.00 | 0.00 | 14 | 999.9 |
| 20260510010110 | 74 | 9 | 0.0 | 0.0 | 0.00 | 0.00 | 0.00 | 14 | 999.8 |
| 20260510004559 | 75 | 9 | 0.0 | 0.0 | 0.00 | 0.00 | 0.00 | 13 | 999.8 |
| 20260510003055 | 76 | 5 | 0.0 | 0.0 | 0.00 | 0.00 | 0.00 | 12 | 999.8 |
| 20260510001550 | 76 | 97 | 0.0 | 0.0 | 0.00 | 0.00 | 0.00 | 11 | 999.8 |
| 20260510000048 | 77 | 9 | 0.0 | 0.0 | 0.00 | 0.00 | 0.00 | 11 | 999.8 |
| 20260509234600 | 78 | 108 | 0.0 | 0.0 | 0.00 | 0.00 | 0.00 | 10 | 999.8 |
| 20260509233045 | 79 | 276 | 0.0 | 1.0 | 0.00 | 0.00 | 0.00 | 10 | 999.6 |
| 20260509231543 | 78 | 103 | 0.0 | 1.0 | 0.00 | 0.00 | 0.00 | 10 | 999.8 |
| 20260509230042 | 80 | 327 | 0.0 | 0.0 | 0.00 | 0.00 | 0.00 | 10 | 999.9 |